createdAt,value
2022-10-24T00:01:35.534Z,7.65
2022-10-24T00:04:03.371Z,7.35
2022-10-24T00:06:32.500Z,8.10
2022-10-24T00:09:00.153Z,8.70
2022-10-24T00:11:28.554Z,8.43
2022-10-24T00:13:56.798Z,8.43
2022-10-24T00:16:24.424Z,8.35
2022-10-24T00:18:53.608Z,8.30
2022-10-24T00:21:21.628Z,6.65
2022-10-24T00:23:55.773Z,8.68
2022-10-24T00:26:23.320Z,8.32
2022-10-24T00:28:52.558Z,8.40
2022-10-24T00:31:24.459Z,8.70
2022-10-24T00:33:52.160Z,7.50
2022-10-24T00:36:21.757Z,8.57
2022-10-24T00:38:51.641Z,7.03
2022-10-24T00:41:24.867Z,6.38
2022-10-24T00:44:13.778Z,7.43
2022-10-24T00:47:02.083Z,8.05
2022-10-24T00:49:32.375Z,7.32
2022-10-24T00:52:04.380Z,7.38
2022-10-24T00:54:32.165Z,7.57
2022-10-24T00:57:18.433Z,8.05
2022-10-24T00:59:50.915Z,7.03
2022-10-24T01:02:18.585Z,9.20
2022-10-24T01:04:48.552Z,10.50
2022-10-24T01:07:23.711Z,10.98
2022-10-24T01:10:16.638Z,11.98
2022-10-24T01:12:50.210Z,12.30
2022-10-24T01:15:26.868Z,13.13
2022-10-24T01:18:01.727Z,9.95
2022-10-24T01:20:44.787Z,9.25
2022-10-24T01:23:40.769Z,11.70
2022-10-24T01:26:45.906Z,12.43
2022-10-24T01:30:00.441Z,12.88
2022-10-24T01:32:41.170Z,14.13
2022-10-24T01:35:14.860Z,12.20
2022-10-24T01:38:09.343Z,13.45
2022-10-24T01:40:50.937Z,14.77
2022-10-24T01:43:22.637Z,13.47
2022-10-24T01:45:53.803Z,13.02
2022-10-24T01:50:50.181Z,14.50
2022-10-24T01:53:22.521Z,13.38
2022-10-24T01:55:52.764Z,13.25
2022-10-24T01:58:20.390Z,15.50
2022-10-24T02:00:48.390Z,15.85
2022-10-24T02:03:23.512Z,16.75
2022-10-24T02:05:54.205Z,14.52
2022-10-24T02:08:31.231Z,16.90
2022-10-24T02:11:01.733Z,15.07
2022-10-24T02:13:35.113Z,12.73
2022-10-24T02:16:05.171Z,14.48
2022-10-24T02:18:33.331Z,17.58
2022-10-24T02:21:39.585Z,17.30
2022-10-24T02:24:17.421Z,14.60
2022-10-24T02:26:52.552Z,16.50
2022-10-24T02:29:40.526Z,16.60
2022-10-24T02:32:11.454Z,16.35
2022-10-24T02:34:39.348Z,16.30
2022-10-24T02:37:06.987Z,15.50
2022-10-24T02:39:34.577Z,15.48
2022-10-24T02:42:03.071Z,14.75
2022-10-24T02:44:30.728Z,15.73
2022-10-24T02:46:59.698Z,16.10
2022-10-24T02:49:28.259Z,16.10
2022-10-24T02:51:56.782Z,16.40
2022-10-24T02:54:24.824Z,18.10
2022-10-24T02:56:53.454Z,17.75
2022-10-24T02:59:21.035Z,17.45
2022-10-24T03:01:48.687Z,16.70
2022-10-24T03:04:16.680Z,14.82
2022-10-24T03:06:44.347Z,19.38
2022-10-24T03:09:15.379Z,18.20
2022-10-24T03:11:43.024Z,18.35
2022-10-24T03:14:11.113Z,16.58
2022-10-24T03:16:39.861Z,18.95
2022-10-24T03:19:08.620Z,18.67
2022-10-24T03:21:36.967Z,19.73
2022-10-24T03:24:04.929Z,18.80
2022-10-24T03:26:34.641Z,18.08
2022-10-24T03:29:02.368Z,18.58
2022-10-24T03:31:31.776Z,16.27
2022-10-24T03:33:59.377Z,19.02
2022-10-24T03:36:27.558Z,18.48
2022-10-24T03:38:55.265Z,18.02
2022-10-24T03:41:22.854Z,17.25
2022-10-24T03:43:51.252Z,17.80
2022-10-24T03:46:19.731Z,18.20
2022-10-24T03:48:47.393Z,18.92
2022-10-24T03:51:15.815Z,18.63
2022-10-24T03:53:43.487Z,16.92
2022-10-24T03:56:11.359Z,17.92
2022-10-24T03:58:38.976Z,16.90
2022-10-24T04:01:06.785Z,14.35
2022-10-24T04:03:34.408Z,15.68
2022-10-24T04:06:02.047Z,16.85
2022-10-24T04:08:31.835Z,14.38
2022-10-24T04:11:00.996Z,15.90
2022-10-24T04:13:31.708Z,14.50
2022-10-24T04:16:01.189Z,12.85
2022-10-24T04:18:29.516Z,13.30
2022-10-24T04:20:57.186Z,11.90
2022-10-24T04:23:25.761Z,13.73
2022-10-24T04:25:53.766Z,13.07
2022-10-24T04:28:21.514Z,11.77
2022-10-24T04:30:57.259Z,13.63
2022-10-24T04:33:25.011Z,13.23
2022-10-24T04:35:52.711Z,14.55
2022-10-24T04:38:20.612Z,12.75
2022-10-24T04:40:52.606Z,13.75
2022-10-24T04:43:20.702Z,12.52
2022-10-24T04:45:48.443Z,11.93
2022-10-24T04:48:16.219Z,12.93
2022-10-24T04:50:45.175Z,12.63
2022-10-24T04:53:14.261Z,11.32
2022-10-24T04:55:43.292Z,12.55
2022-10-24T04:58:10.963Z,12.23
2022-10-24T05:00:39.565Z,11.38
2022-10-24T05:03:07.153Z,9.73
2022-10-24T05:05:35.240Z,11.45
2022-10-24T05:08:03.334Z,11.23
2022-10-24T05:10:33.198Z,10.70
2022-10-24T05:13:14.283Z,10.90
2022-10-24T05:15:43.786Z,10.88
2022-10-24T05:18:11.542Z,10.35
2022-10-24T05:23:09.649Z,8.93
2022-10-24T05:25:37.237Z,8.55
2022-10-24T05:28:05.936Z,10.13
2022-10-24T05:30:34.130Z,8.70
2022-10-24T05:33:01.962Z,8.82
2022-10-24T05:35:29.974Z,9.57
2022-10-24T05:37:57.592Z,9.02
2022-10-24T05:40:25.300Z,8.23
2022-10-24T05:42:53.284Z,8.68
2022-10-24T05:45:21.240Z,12.18
2022-10-24T05:47:49.151Z,11.82
2022-10-24T05:50:17.391Z,9.80
2022-10-24T05:52:47.141Z,10.95
2022-10-24T05:55:17.896Z,11.48
2022-10-24T05:57:46.332Z,12.40
2022-10-24T06:00:15.207Z,11.15
2022-10-24T06:02:43.356Z,24.10
2022-10-24T06:05:11.610Z,15.80
2022-10-24T06:07:39.791Z,9.82
2022-10-24T06:10:10.597Z,10.43
2022-10-24T06:12:39.539Z,10.30
2022-10-24T06:15:08.740Z,8.43
2022-10-24T06:17:36.486Z,10.10
2022-10-24T06:20:04.704Z,8.38
2022-10-24T06:22:33.080Z,10.00
2022-10-24T06:25:01.757Z,8.70
2022-10-24T06:27:29.583Z,10.05
2022-10-24T06:29:59.153Z,7.50
2022-10-24T06:32:27.001Z,8.80
2022-10-24T06:34:54.582Z,9.10
2022-10-24T06:37:23.044Z,8.98
2022-10-24T06:39:50.581Z,8.90
2022-10-24T06:42:18.196Z,8.73
2022-10-24T06:44:46.373Z,8.00
2022-10-24T06:47:14.061Z,8.27
2022-10-24T06:49:42.989Z,8.02
2022-10-24T06:52:11.050Z,7.95
2022-10-24T06:54:43.899Z,9.40
2022-10-24T06:57:11.536Z,9.38
2022-10-24T06:59:39.091Z,10.40
2022-10-24T07:02:07.248Z,6.25
2022-10-24T07:04:35.240Z,8.77
2022-10-24T07:07:03.463Z,10.40
2022-10-24T07:09:31.189Z,8.93
2022-10-24T07:11:59.584Z,8.90
2022-10-24T07:14:30.203Z,7.47
2022-10-24T07:16:59.666Z,9.02
2022-10-24T07:19:27.302Z,9.00
2022-10-24T07:21:55.544Z,7.50
2022-10-24T07:24:23.286Z,5.65
2022-10-24T07:26:50.990Z,7.43
2022-10-24T07:29:22.888Z,6.25
2022-10-24T07:31:50.790Z,7.80
2022-10-24T07:34:18.506Z,7.38
2022-10-24T07:36:46.309Z,7.50
2022-10-24T07:39:14.309Z,7.88
2022-10-24T07:41:43.162Z,7.75
2022-10-24T07:44:11.431Z,7.15
2022-10-24T07:46:43.162Z,6.90
2022-10-24T07:49:13.197Z,5.63
2022-10-24T07:51:41.786Z,5.80
2022-10-24T07:54:09.835Z,8.93
2022-10-24T07:56:37.957Z,6.15
2022-10-24T07:59:09.409Z,5.40
2022-10-24T08:01:41.725Z,4.72
2022-10-24T08:04:10.439Z,6.25
2022-10-24T08:06:38.168Z,5.55
2022-10-24T08:09:06.238Z,5.65
2022-10-24T08:11:34.528Z,6.25
2022-10-24T08:14:02.656Z,5.22
2022-10-24T08:16:30.552Z,5.07
2022-10-24T08:18:58.342Z,5.80
2022-10-24T08:21:26.939Z,5.40
2022-10-24T08:23:55.870Z,5.53
2022-10-24T08:26:24.750Z,5.57
2022-10-24T08:28:52.530Z,5.20
2022-10-24T08:31:21.642Z,6.03
2022-10-24T08:33:51.275Z,4.93
2022-10-24T08:36:23.734Z,5.15
2022-10-24T08:38:51.889Z,4.80
2022-10-24T08:41:30.060Z,5.38
2022-10-24T08:44:01.003Z,4.60
2022-10-24T08:46:44.408Z,4.38
2022-10-24T08:49:29.556Z,4.68
2022-10-24T08:52:01.160Z,4.13
2022-10-24T08:54:39.383Z,4.28
2022-10-24T08:57:06.956Z,4.47
2022-10-24T08:59:36.279Z,3.60
2022-10-24T09:02:26.040Z,3.78
2022-10-24T09:04:57.556Z,2.65
2022-10-24T09:07:29.353Z,4.60
2022-10-24T09:10:45.041Z,4.63
2022-10-24T09:13:14.740Z,2.83
2022-10-24T09:15:45.284Z,3.10
2022-10-24T09:18:24.857Z,2.78
2022-10-24T09:20:54.657Z,3.33
2022-10-24T09:23:26.375Z,3.30
2022-10-24T09:26:00.616Z,3.30
2022-10-24T09:28:38.329Z,3.00
2022-10-24T09:31:20.259Z,2.38
2022-10-24T09:33:49.524Z,6.68
2022-10-24T09:36:20.302Z,3.10
2022-10-24T09:38:49.351Z,10.60
2022-10-24T09:41:22.753Z,2.83
2022-10-24T09:43:56.979Z,2.70
2022-10-24T09:46:29.440Z,3.00
2022-10-24T09:49:04.128Z,7.35
2022-10-24T09:51:41.383Z,5.35
2022-10-24T09:54:21.424Z,7.90
2022-10-24T09:56:55.103Z,4.40
2022-10-24T09:59:44.457Z,3.03
2022-10-24T10:02:20.165Z,2.92
2022-10-24T10:04:49.516Z,3.20
2022-10-24T10:07:19.277Z,3.72
2022-10-24T10:10:00.587Z,3.00
2022-10-24T10:12:34.901Z,2.70
2022-10-24T10:15:23.545Z,2.67
2022-10-24T10:18:05.847Z,3.08
2022-10-24T10:20:43.082Z,2.88
2022-10-24T10:23:17.671Z,3.38
2022-10-24T10:25:45.551Z,3.80
2022-10-24T10:28:23.545Z,4.40
2022-10-24T10:30:56.037Z,3.10
2022-10-24T10:36:20.059Z,3.33
2022-10-24T10:38:58.002Z,3.20
2022-10-24T10:41:40.262Z,2.92
2022-10-24T10:44:20.853Z,4.22
2022-10-24T10:47:04.497Z,3.95
2022-10-24T10:49:40.812Z,4.13
2022-10-24T10:52:26.092Z,3.20
2022-10-24T10:55:02.773Z,3.88
2022-10-24T10:57:36.857Z,2.70
2022-10-24T11:00:31.196Z,3.05
2022-10-24T11:03:17.605Z,2.72
2022-10-24T11:06:09.120Z,2.70
2022-10-24T11:08:44.746Z,2.70
2022-10-24T11:11:17.825Z,2.63
2022-10-24T11:13:50.141Z,2.65
2022-10-24T11:16:22.944Z,2.53
2022-10-24T11:18:52.225Z,3.03
2022-10-24T11:21:21.391Z,3.10
2022-10-24T11:24:01.890Z,2.97
2022-10-24T11:26:42.533Z,3.15
2022-10-24T11:29:35.245Z,2.80
2022-10-24T11:34:43.181Z,6.03
2022-10-24T11:37:39.397Z,2.80
2022-10-24T11:40:12.166Z,2.60
2022-10-24T11:43:07.570Z,3.33
2022-10-24T11:45:53.886Z,2.70
2022-10-24T11:48:42.678Z,2.28
2022-10-24T11:51:42.490Z,2.85
2022-10-24T11:54:32.212Z,1.35
2022-10-24T11:59:46.840Z,2.95
2022-10-24T12:02:49.153Z,2.58
2022-10-24T12:05:46.265Z,1.85
2022-10-24T12:08:34.290Z,2.33
2022-10-24T12:11:12.798Z,2.40
2022-10-24T12:14:11.182Z,2.33
2022-10-24T12:17:00.921Z,1.95
2022-10-24T12:19:29.071Z,3.35
2022-10-24T12:22:01.781Z,2.45
2022-10-24T12:24:34.722Z,3.40
2022-10-24T12:27:04.191Z,2.20
2022-10-24T12:29:33.858Z,2.20
2022-10-24T12:32:33.337Z,2.20
2022-10-24T12:35:28.854Z,2.03
2022-10-24T12:37:50.317Z,1.65
2022-10-24T12:40:45.351Z,2.22
2022-10-24T12:43:32.655Z,2.40
2022-10-24T12:46:21.641Z,2.63
2022-10-24T12:48:59.260Z,2.72
2022-10-24T12:51:36.571Z,2.47
2022-10-24T12:54:13.642Z,2.05
2022-10-24T12:56:50.469Z,2.00
2022-10-24T12:59:21.869Z,2.40
2022-10-24T13:01:50.796Z,2.20
2022-10-24T13:05:06.516Z,2.97
2022-10-24T13:07:46.114Z,2.78
2022-10-24T13:10:31.977Z,2.70
2022-10-24T13:13:11.922Z,1.92
2022-10-24T13:15:43.421Z,2.50
2022-10-24T13:18:35.874Z,2.30
2022-10-24T13:21:16.548Z,2.60
2022-10-24T13:23:46.274Z,3.47
2022-10-24T13:26:47.544Z,2.97
2022-10-24T13:29:23.966Z,2.22
2022-10-24T13:31:53.309Z,3.17
2022-10-24T13:34:24.062Z,3.92
2022-10-24T13:39:49.784Z,3.10
2022-10-24T13:42:24.703Z,4.28
2022-10-24T13:44:54.880Z,4.30
2022-10-24T13:47:43.374Z,4.22
2022-10-24T13:50:25.208Z,3.83
2022-10-24T13:52:58.052Z,3.60
2022-10-24T13:55:29.730Z,3.13
2022-10-24T13:58:00.899Z,2.80
2022-10-24T14:00:30.986Z,2.65
2022-10-24T14:03:01.037Z,2.90
2022-10-24T14:05:35.205Z,3.15
2022-10-24T14:08:02.989Z,2.95
2022-10-24T14:10:31.298Z,4.03
2022-10-24T14:12:59.315Z,26.13
2022-10-24T14:15:33.121Z,49.58
2022-10-24T14:18:13.302Z,48.08
2022-10-24T14:20:41.167Z,12.18
2022-10-24T14:23:38.057Z,7.90
2022-10-24T14:26:08.041Z,3.35
2022-10-24T14:28:45.135Z,3.17
2022-10-24T14:31:31.255Z,3.72
2022-10-24T14:33:58.956Z,3.13
2022-10-24T14:36:31.532Z,3.00
2022-10-24T14:39:01.130Z,3.40
2022-10-24T14:41:40.935Z,3.53
2022-10-24T14:44:08.626Z,3.33
2022-10-24T14:46:38.113Z,3.30
2022-10-24T14:49:38.245Z,4.00
2022-10-24T14:52:36.695Z,3.55
2022-10-24T14:55:13.700Z,4.75
2022-10-24T14:57:46.695Z,5.18
2022-10-24T15:00:20.652Z,3.55
2022-10-24T15:02:49.438Z,3.60
2022-10-24T15:05:20.003Z,3.60
2022-10-24T15:08:09.164Z,3.45
2022-10-24T15:10:41.611Z,13.05
2022-10-24T15:13:25.621Z,9.95
2022-10-24T15:15:58.140Z,9.30
2022-10-24T15:18:30.870Z,6.22
2022-10-24T15:21:01.983Z,5.72
2022-10-24T15:23:35.438Z,5.85
2022-10-24T15:26:20.766Z,6.03
2022-10-24T15:29:12.781Z,5.82
2022-10-24T15:31:42.288Z,5.97
2022-10-24T15:34:20.040Z,6.60
2022-10-24T15:36:48.986Z,7.10
2022-10-24T15:39:22.361Z,13.95
2022-10-24T15:41:51.119Z,10.45
2022-10-24T15:44:26.703Z,9.02
2022-10-24T15:46:55.088Z,8.00
2022-10-24T15:49:22.768Z,9.18
2022-10-24T15:51:50.752Z,7.45
2022-10-24T15:54:21.928Z,7.13
2022-10-24T15:56:50.548Z,7.63
2022-10-24T15:59:20.308Z,7.18
2022-10-24T16:01:58.207Z,7.70
2022-10-24T16:04:26.992Z,7.82
2022-10-24T16:06:56.100Z,8.40
2022-10-24T16:09:27.744Z,7.65
2022-10-24T16:11:55.327Z,6.60
2022-10-24T16:14:26.273Z,8.65
2022-10-24T16:16:55.367Z,9.43
2022-10-24T16:19:25.924Z,8.82
2022-10-24T16:21:58.535Z,7.70
2022-10-24T16:24:26.904Z,5.40
2022-10-24T16:26:55.271Z,8.93
2022-10-24T16:29:22.944Z,10.50
2022-10-24T16:31:51.173Z,9.13
2022-10-24T16:34:19.032Z,10.55
2022-10-24T16:36:47.967Z,8.30
2022-10-24T16:39:16.540Z,8.20
2022-10-24T16:41:46.367Z,7.07
2022-10-24T16:44:20.109Z,7.03
2022-10-24T16:46:48.813Z,5.72
2022-10-24T16:49:21.186Z,6.70
2022-10-24T16:51:49.683Z,7.40
2022-10-24T16:54:19.596Z,7.22
2022-10-24T16:56:53.385Z,5.93
2022-10-24T16:59:21.682Z,7.63
2022-10-24T17:01:49.534Z,8.15
2022-10-24T17:04:17.244Z,8.77
2022-10-24T17:06:46.204Z,12.52
2022-10-24T17:09:14.719Z,16.73
2022-10-24T17:11:46.453Z,10.10
2022-10-24T17:14:14.763Z,12.23
2022-10-24T17:16:43.130Z,9.90
2022-10-24T17:19:17.419Z,10.15
2022-10-24T17:21:48.985Z,8.13
2022-10-24T17:24:18.259Z,8.68
2022-10-24T17:26:46.029Z,7.50
2022-10-24T17:29:25.115Z,9.52
2022-10-24T17:31:54.238Z,8.68
2022-10-24T17:34:22.625Z,9.90
2022-10-24T17:36:54.578Z,9.93
2022-10-24T17:41:57.582Z,11.75
2022-10-24T17:44:25.596Z,9.30
2022-10-24T17:46:57.431Z,9.45
2022-10-24T17:49:27.160Z,11.43
2022-10-24T17:51:54.812Z,13.40
2022-10-24T17:54:22.580Z,13.75
2022-10-24T17:56:50.395Z,9.70
2022-10-24T17:59:18.040Z,16.33
2022-10-24T18:01:45.737Z,15.00
2022-10-24T18:04:13.735Z,11.80
2022-10-24T18:06:43.465Z,10.95
2022-10-24T18:09:11.793Z,12.02
2022-10-24T18:11:40.491Z,12.48
2022-10-24T18:14:08.351Z,12.85
2022-10-24T18:16:38.237Z,11.32
2022-10-24T18:19:07.451Z,17.35
2022-10-24T18:21:36.450Z,13.95
2022-10-24T18:24:06.348Z,14.27
2022-10-24T18:26:34.569Z,12.65
2022-10-24T18:29:02.220Z,13.50
2022-10-24T18:31:30.525Z,12.27
2022-10-24T18:34:04.782Z,15.27
2022-10-24T18:36:36.549Z,17.80
2022-10-24T18:39:04.800Z,16.20
2022-10-24T18:42:05.898Z,17.30
2022-10-24T18:44:35.098Z,16.13
2022-10-24T18:47:04.545Z,17.17
2022-10-24T18:49:33.850Z,17.50
2022-10-24T18:52:10.473Z,16.45
2022-10-24T18:54:59.966Z,16.52
2022-10-24T18:57:31.945Z,15.52
2022-10-24T19:00:00.130Z,14.48
2022-10-24T19:02:32.240Z,14.35
2022-10-24T19:05:18.797Z,17.08
2022-10-24T19:07:47.332Z,23.55
2022-10-24T19:10:20.716Z,18.67
2022-10-24T19:12:49.834Z,22.75
2022-10-24T19:15:18.196Z,22.25
2022-10-24T19:18:06.235Z,27.05
2022-10-24T19:20:35.735Z,44.83
2022-10-24T19:23:07.593Z,33.22
2022-10-24T19:25:35.483Z,26.08
2022-10-24T19:28:03.973Z,32.92
2022-10-24T19:30:31.801Z,26.73
2022-10-24T19:33:01.034Z,34.70
2022-10-24T19:35:28.664Z,47.92
2022-10-24T19:37:56.728Z,37.05
2022-10-24T19:40:24.478Z,39.28
2022-10-24T19:42:52.658Z,37.45
2022-10-24T19:45:22.877Z,31.92
2022-10-24T19:47:56.011Z,34.30
2022-10-24T19:50:24.049Z,34.15
2022-10-24T19:52:52.030Z,34.47
2022-10-24T19:55:19.666Z,34.78
2022-10-24T19:57:47.614Z,36.00
2022-10-24T20:00:15.631Z,34.05
2022-10-24T20:02:43.687Z,33.45
2022-10-24T20:05:11.536Z,34.15
2022-10-24T20:07:39.219Z,32.80
2022-10-24T20:10:08.804Z,30.55
2022-10-24T20:12:36.753Z,33.60
2022-10-24T20:15:05.274Z,29.35
2022-10-24T20:17:32.984Z,29.00
2022-10-24T20:20:00.783Z,30.83
2022-10-24T20:22:29.151Z,27.63
2022-10-24T20:24:57.838Z,27.23
2022-10-24T20:27:25.556Z,27.58
2022-10-24T20:29:53.419Z,26.88
2022-10-24T20:32:21.204Z,29.05
2022-10-24T20:34:48.863Z,28.35
2022-10-24T20:37:17.106Z,26.60
2022-10-24T20:39:44.762Z,26.45
2022-10-24T20:42:12.384Z,24.60
2022-10-24T20:44:41.273Z,26.10
2022-10-24T20:47:08.877Z,26.75
2022-10-24T20:49:36.444Z,26.83
2022-10-24T20:52:04.161Z,27.00
2022-10-24T20:54:32.025Z,25.75
2022-10-24T20:56:59.872Z,26.67
2022-10-24T20:59:27.563Z,30.40
2022-10-24T21:01:55.364Z,29.83
2022-10-24T21:04:23.139Z,26.63
2022-10-24T21:06:50.741Z,27.13
2022-10-24T21:09:18.799Z,23.35
2022-10-24T21:11:50.863Z,23.48
2022-10-24T21:14:20.820Z,25.10
2022-10-24T21:16:49.919Z,21.85
2022-10-24T21:19:17.796Z,19.98
2022-10-24T21:21:46.104Z,18.10
2022-10-24T21:24:15.120Z,19.88
2022-10-24T21:26:43.069Z,18.48
2022-10-24T21:31:58.596Z,19.00
2022-10-24T21:34:27.797Z,18.42
2022-10-24T21:36:59.161Z,18.63
2022-10-24T21:39:26.809Z,20.42
2022-10-24T21:41:54.406Z,19.50
2022-10-24T21:44:23.486Z,21.23
2022-10-24T21:46:52.174Z,20.83
2022-10-24T21:49:20.855Z,19.92
2022-10-24T21:51:48.649Z,20.50
2022-10-24T21:54:19.227Z,20.52
2022-10-24T21:56:47.140Z,23.08
2022-10-24T21:59:16.482Z,20.08
2022-10-24T22:01:45.168Z,20.27
2022-10-24T22:04:13.454Z,18.92
2022-10-24T22:06:42.992Z,20.17
2022-10-24T22:09:13.053Z,19.08
2022-10-24T22:11:41.903Z,19.65
2022-10-24T22:14:10.710Z,20.95
2022-10-24T22:16:40.687Z,23.20
2022-10-24T22:19:08.497Z,22.20
2022-10-24T22:21:37.846Z,23.05
2022-10-24T22:26:35.214Z,19.13
2022-10-24T22:29:03.034Z,21.27
2022-10-24T22:31:31.844Z,17.27
2022-10-24T22:33:59.669Z,18.25
2022-10-24T22:37:01.454Z,17.27
2022-10-24T22:41:57.321Z,17.58
2022-10-24T22:44:25.209Z,18.30
2022-10-24T22:47:19.821Z,19.08
2022-10-24T22:49:59.992Z,18.52
2022-10-24T22:52:28.229Z,19.10
2022-10-24T22:54:57.080Z,17.23
2022-10-24T22:57:25.217Z,18.80
2022-10-24T22:59:53.049Z,17.58
2022-10-24T23:02:27.860Z,17.60
2022-10-24T23:04:58.457Z,17.40
2022-10-24T23:07:42.809Z,16.92
2022-10-24T23:10:11.533Z,17.77
2022-10-24T23:12:42.405Z,13.73
2022-10-24T23:15:13.646Z,18.48
2022-10-24T23:17:41.582Z,19.58
2022-10-24T23:20:17.297Z,18.50
2022-10-24T23:22:46.697Z,18.45
2022-10-24T23:25:18.942Z,18.48
2022-10-24T23:27:47.099Z,18.70
2022-10-24T23:30:17.372Z,26.08
2022-10-24T23:32:46.164Z,21.20
2022-10-24T23:35:14.468Z,18.42
2022-10-24T23:37:43.962Z,20.15
2022-10-24T23:40:11.758Z,20.58
2022-10-24T23:42:39.546Z,20.58
2022-10-24T23:45:12.829Z,21.30
2022-10-24T23:47:59.109Z,20.88
2022-10-24T23:50:34.697Z,21.83
2022-10-24T23:53:23.936Z,19.60
2022-10-24T23:55:51.973Z,21.70
2022-10-24T23:58:19.648Z,25.48
